Northport, Michigan
Current Conditions -  °F | °C
As of 9:15 AM on Sunday 23 Nov 2014 (Local Time) from KCVX Reporting Station
Haze Haze  
Wind Chill: 41°   Ceiling: 600
Heat Index: 46°   Visibility: 2.5mi
Dew Point: 46°   Wind: 9mph
Humidity: 100%   Direction: 170°S
Pressure: 29.74"   Gusts: NA
Location:  45.13°N, 85.62°W
Report Text: KCVX 231415Z AUTO 17008KT 2 1/2SM BR OVC006 08/08 A2974 RMK AO2 T00750075
Loading
Personal Weather Stations






























Interactive Weather Map New forecast layout! Learn more

10-Day Weather Forecast

Advertisements
Track Severe Weather on mobile